sensor_id;sensor_type;location;lat;lon;timestamp;temperature;humidity
49441;DHT22;35317;51.978;6.296;2023-04-25T00:03:23;7.80;99.90
49441;DHT22;35317;51.978;6.296;2023-04-25T00:08:25;7.80;99.90
49441;DHT22;35317;51.978;6.296;2023-04-25T00:13:26;7.80;99.90
49441;DHT22;35317;51.978;6.296;2023-04-25T00:18:27;7.80;99.90
49441;DHT22;35317;51.978;6.296;2023-04-25T00:23:29;7.80;99.90
49441;DHT22;35317;51.978;6.296;2023-04-25T00:28:30;7.80;99.90
49441;DHT22;35317;51.978;6.296;2023-04-25T00:33:31;7.80;99.90
49441;DHT22;35317;51.978;6.296;2023-04-25T00:38:31;7.80;99.90
49441;DHT22;35317;51.978;6.296;2023-04-25T00:43:32;7.80;99.90
49441;DHT22;35317;51.978;6.296;2023-04-25T00:48:34;7.80;99.90
49441;DHT22;35317;51.978;6.296;2023-04-25T00:53:35;7.70;99.90
49441;DHT22;35317;51.978;6.296;2023-04-25T00:58:37;7.60;99.90
49441;DHT22;35317;51.978;6.296;2023-04-25T01:03:38;7.50;99.90
49441;DHT22;35317;51.978;6.296;2023-04-25T01:08:43;7.40;99.90
49441;DHT22;35317;51.978;6.296;2023-04-25T01:13:44;7.20;99.90
49441;DHT22;35317;51.978;6.296;2023-04-25T01:18:45;7.10;99.90
49441;DHT22;35317;51.978;6.296;2023-04-25T01:23:46;7.00;99.90
49441;DHT22;35317;51.978;6.296;2023-04-25T01:28:48;7.00;99.90
49441;DHT22;35317;51.978;6.296;2023-04-25T01:33:49;7.00;99.90
49441;DHT22;35317;51.978;6.296;2023-04-25T01:38:50;7.00;99.90
49441;DHT22;35317;51.978;6.296;2023-04-25T01:43:51;7.10;99.90
49441;DHT22;35317;51.978;6.296;2023-04-25T01:48:52;7.10;99.90
49441;DHT22;35317;51.978;6.296;2023-04-25T01:53:54;7.20;99.90
49441;DHT22;35317;51.978;6.296;2023-04-25T01:58:55;7.20;99.90
49441;DHT22;35317;51.978;6.296;2023-04-25T02:03:56;7.20;99.90
49441;DHT22;35317;51.978;6.296;2023-04-25T02:08:56;7.30;99.90
49441;DHT22;35317;51.978;6.296;2023-04-25T02:13:57;7.20;99.90
49441;DHT22;35317;51.978;6.296;2023-04-25T02:18:58;7.20;99.90
49441;DHT22;35317;51.978;6.296;2023-04-25T02:23:59;7.20;99.90
49441;DHT22;35317;51.978;6.296;2023-04-25T02:29:00;7.20;99.90
49441;DHT22;35317;51.978;6.296;2023-04-25T02:34:01;7.20;99.90
49441;DHT22;35317;51.978;6.296;2023-04-25T02:39:02;7.10;99.90
49441;DHT22;35317;51.978;6.296;2023-04-25T02:44:03;7.10;99.90
49441;DHT22;35317;51.978;6.296;2023-04-25T02:49:04;7.10;99.90
49441;DHT22;35317;51.978;6.296;2023-04-25T02:54:05;7.10;99.90
49441;DHT22;35317;51.978;6.296;2023-04-25T02:59:06;7.10;99.90
49441;DHT22;35317;51.978;6.296;2023-04-25T03:04:07;7.10;99.90
49441;DHT22;35317;51.978;6.296;2023-04-25T03:09:08;7.00;99.90
49441;DHT22;35317;51.978;6.296;2023-04-25T03:14:09;7.00;99.90
49441;DHT22;35317;51.978;6.296;2023-04-25T03:19:10;7.00;99.90
49441;DHT22;35317;51.978;6.296;2023-04-25T03:24:11;6.90;99.90
49441;DHT22;35317;51.978;6.296;2023-04-25T03:29:12;6.80;99.90
49441;DHT22;35317;51.978;6.296;2023-04-25T03:34:12;6.70;99.90
49441;DHT22;35317;51.978;6.296;2023-04-25T03:39:15;6.70;99.90
49441;DHT22;35317;51.978;6.296;2023-04-25T03:44:16;6.60;99.90
49441;DHT22;35317;51.978;6.296;2023-04-25T03:49:17;6.60;99.90
49441;DHT22;35317;51.978;6.296;2023-04-25T03:54:17;6.60;99.90
49441;DHT22;35317;51.978;6.296;2023-04-25T03:59:18;6.50;99.90
49441;DHT22;35317;51.978;6.296;2023-04-25T04:04:19;6.50;99.90
49441;DHT22;35317;51.978;6.296;2023-04-25T04:09:20;6.50;99.90
49441;DHT22;35317;51.978;6.296;2023-04-25T04:14:20;6.40;99.90
49441;DHT22;35317;51.978;6.296;2023-04-25T04:19:21;6.40;99.90
49441;DHT22;35317;51.978;6.296;2023-04-25T04:24:22;6.40;99.90
49441;DHT22;35317;51.978;6.296;2023-04-25T04:29:24;6.50;99.90
49441;DHT22;35317;51.978;6.296;2023-04-25T04:34:25;6.50;99.90
49441;DHT22;35317;51.978;6.296;2023-04-25T04:39:27;6.50;99.90
49441;DHT22;35317;51.978;6.296;2023-04-25T04:44:29;6.50;99.90
49441;DHT22;35317;51.978;6.296;2023-04-25T04:49:33;6.50;99.90
49441;DHT22;35317;51.978;6.296;2023-04-25T04:54:33;6.50;99.90
49441;DHT22;35317;51.978;6.296;2023-04-25T04:59:35;6.50;99.90
49441;DHT22;35317;51.978;6.296;2023-04-25T05:04:36;6.40;99.90
49441;DHT22;35317;51.978;6.296;2023-04-25T05:09:37;6.40;99.90
49441;DHT22;35317;51.978;6.296;2023-04-25T05:14:38;6.40;99.90
49441;DHT22;35317;51.978;6.296;2023-04-25T05:19:39;6.40;99.90
49441;DHT22;35317;51.978;6.296;2023-04-25T05:24:40;6.40;99.90
49441;DHT22;35317;51.978;6.296;2023-04-25T05:29:41;6.40;99.90
49441;DHT22;35317;51.978;6.296;2023-04-25T05:34:41;6.50;99.90
49441;DHT22;35317;51.978;6.296;2023-04-25T05:39:42;6.50;99.90
49441;DHT22;35317;51.978;6.296;2023-04-25T05:44:44;6.60;99.90
49441;DHT22;35317;51.978;6.296;2023-04-25T05:49:44;6.60;99.90
49441;DHT22;35317;51.978;6.296;2023-04-25T05:54:45;6.70;99.90
49441;DHT22;35317;51.978;6.296;2023-04-25T05:59:46;6.80;99.90
49441;DHT22;35317;51.978;6.296;2023-04-25T06:04:49;6.80;99.90
49441;DHT22;35317;51.978;6.296;2023-04-25T06:09:50;6.80;99.90
49441;DHT22;35317;51.978;6.296;2023-04-25T06:14:51;6.80;99.90
49441;DHT22;35317;51.978;6.296;2023-04-25T06:19:52;6.80;99.90
49441;DHT22;35317;51.978;6.296;2023-04-25T06:24:53;6.80;99.90
49441;DHT22;35317;51.978;6.296;2023-04-25T06:29:53;6.80;99.90
49441;DHT22;35317;51.978;6.296;2023-04-25T06:34:54;6.70;99.90
49441;DHT22;35317;51.978;6.296;2023-04-25T06:39:55;6.80;99.90
49441;DHT22;35317;51.978;6.296;2023-04-25T06:44:56;6.90;99.90
49441;DHT22;35317;51.978;6.296;2023-04-25T06:49:56;7.10;99.90
49441;DHT22;35317;51.978;6.296;2023-04-25T06:54:58;7.20;99.90
49441;DHT22;35317;51.978;6.296;2023-04-25T06:59:58;7.30;99.90
49441;DHT22;35317;51.978;6.296;2023-04-25T07:04:59;7.60;99.90
49441;DHT22;35317;51.978;6.296;2023-04-25T07:10:00;7.80;99.90
49441;DHT22;35317;51.978;6.296;2023-04-25T07:15:01;8.10;99.90
49441;DHT22;35317;51.978;6.296;2023-04-25T07:20:06;8.30;99.90
49441;DHT22;35317;51.978;6.296;2023-04-25T07:25:09;8.30;99.90
49441;DHT22;35317;51.978;6.296;2023-04-25T07:30:10;8.30;99.90
49441;DHT22;35317;51.978;6.296;2023-04-25T07:35:11;8.40;99.60
49441;DHT22;35317;51.978;6.296;2023-04-25T07:40:12;8.60;99.50
49441;DHT22;35317;51.978;6.296;2023-04-25T07:45:13;8.80;99.30
49441;DHT22;35317;51.978;6.296;2023-04-25T07:50:14;9.10;98.90
49441;DHT22;35317;51.978;6.296;2023-04-25T07:55:14;9.20;98.00
49441;DHT22;35317;51.978;6.296;2023-04-25T08:00:16;9.00;97.40
49441;DHT22;35317;51.978;6.296;2023-04-25T08:05:17;8.80;96.70
49441;DHT22;35317;51.978;6.296;2023-04-25T08:10:18;8.70;96.60
49441;DHT22;35317;51.978;6.296;2023-04-25T08:15:18;8.80;96.70
49441;DHT22;35317;51.978;6.296;2023-04-25T08:20:20;9.10;96.60
49441;DHT22;35317;51.978;6.296;2023-04-25T08:25:21;9.30;95.90
49441;DHT22;35317;51.978;6.296;2023-04-25T08:30:22;9.30;95.50
49441;DHT22;35317;51.978;6.296;2023-04-25T08:35:23;9.60;94.70
49441;DHT22;35317;51.978;6.296;2023-04-25T08:40:27;9.80;93.50
49441;DHT22;35317;51.978;6.296;2023-04-25T08:45:32;10.00;93.70
49441;DHT22;35317;51.978;6.296;2023-04-25T08:50:34;10.10;92.90
49441;DHT22;35317;51.978;6.296;2023-04-25T08:55:37;9.60;93.10
49441;DHT22;35317;51.978;6.296;2023-04-25T09:00:41;8.70;94.20
49441;DHT22;35317;51.978;6.296;2023-04-25T09:05:42;8.10;95.20
49441;DHT22;35317;51.978;6.296;2023-04-25T09:10:43;7.90;96.00
49441;DHT22;35317;51.978;6.296;2023-04-25T09:15:54;8.00;96.30
49441;DHT22;35317;51.978;6.296;2023-04-25T09:20:58;8.40;96.30
49441;DHT22;35317;51.978;6.296;2023-04-25T09:26:07;8.60;95.90
49441;DHT22;35317;51.978;6.296;2023-04-25T09:31:12;9.00;95.70
49441;DHT22;35317;51.978;6.296;2023-04-25T09:36:12;9.40;95.00
49441;DHT22;35317;51.978;6.296;2023-04-25T09:41:13;9.70;94.80
49441;DHT22;35317;51.978;6.296;2023-04-25T09:46:23;10.00;94.60
49441;DHT22;35317;51.978;6.296;2023-04-25T09:51:25;10.30;94.10
49441;DHT22;35317;51.978;6.296;2023-04-25T09:56:32;10.40;93.70
49441;DHT22;35317;51.978;6.296;2023-04-25T10:01:39;10.50;92.30
49441;DHT22;35317;51.978;6.296;2023-04-25T10:06:42;10.80;91.50
49441;DHT22;35317;51.978;6.296;2023-04-25T10:11:46;11.10;90.80
49441;DHT22;35317;51.978;6.296;2023-04-25T10:16:48;11.50;90.30
49441;DHT22;35317;51.978;6.296;2023-04-25T10:22:03;11.90;90.30
49441;DHT22;35317;51.978;6.296;2023-04-25T10:27:07;11.90;89.30
49441;DHT22;35317;51.978;6.296;2023-04-25T10:32:08;11.50;89.40
49441;DHT22;35317;51.978;6.296;2023-04-25T10:37:10;11.10;90.00
49441;DHT22;35317;51.978;6.296;2023-04-25T10:42:11;10.60;90.60
49441;DHT22;35317;51.978;6.296;2023-04-25T10:47:12;10.40;91.20
49441;DHT22;35317;51.978;6.296;2023-04-25T10:52:26;10.40;91.60
49441;DHT22;35317;51.978;6.296;2023-04-25T10:57:41;10.70;91.80
49441;DHT22;35317;51.978;6.296;2023-04-25T11:02:48;11.10;91.80
49441;DHT22;35317;51.978;6.296;2023-04-25T11:07:55;11.60;91.20
49441;DHT22;35317;51.978;6.296;2023-04-25T11:12:59;11.70;89.30
49441;DHT22;35317;51.978;6.296;2023-04-25T11:18:00;11.50;88.10
49441;DHT22;35317;51.978;6.296;2023-04-25T11:23:01;11.10;87.90
49441;DHT22;35317;51.978;6.296;2023-04-25T11:28:02;10.80;88.10
49441;DHT22;35317;51.978;6.296;2023-04-25T11:33:03;10.50;86.80
49441;DHT22;35317;51.978;6.296;2023-04-25T11:38:04;10.30;88.20
49441;DHT22;35317;51.978;6.296;2023-04-25T11:43:04;10.40;87.40
49441;DHT22;35317;51.978;6.296;2023-04-25T11:48:06;10.60;86.50
49441;DHT22;35317;51.978;6.296;2023-04-25T11:53:07;10.90;85.20
49441;DHT22;35317;51.978;6.296;2023-04-25T11:58:08;11.30;83.50
49441;DHT22;35317;51.978;6.296;2023-04-25T12:03:09;11.30;79.40
49441;DHT22;35317;51.978;6.296;2023-04-25T12:08:15;11.40;79.40
49441;DHT22;35317;51.978;6.296;2023-04-25T12:13:24;11.70;79.50
49441;DHT22;35317;51.978;6.296;2023-04-25T12:18:27;12.30;78.30
49441;DHT22;35317;51.978;6.296;2023-04-25T12:23:28;12.90;76.80
49441;DHT22;35317;51.978;6.296;2023-04-25T12:28:32;13.20;75.30
49441;DHT22;35317;51.978;6.296;2023-04-25T12:33:34;13.30;76.10
49441;DHT22;35317;51.978;6.296;2023-04-25T12:38:41;13.30;75.60
49441;DHT22;35317;51.978;6.296;2023-04-25T12:43:42;13.20;75.80
49441;DHT22;35317;51.978;6.296;2023-04-25T12:48:43;13.20;74.60
49441;DHT22;35317;51.978;6.296;2023-04-25T12:53:44;13.00;73.70
49441;DHT22;35317;51.978;6.296;2023-04-25T12:58:44;12.60;75.50
49441;DHT22;35317;51.978;6.296;2023-04-25T13:03:46;12.00;77.90
49441;DHT22;35317;51.978;6.296;2023-04-25T13:08:48;11.80;79.20
49441;DHT22;35317;51.978;6.296;2023-04-25T13:13:49;11.60;79.10
49441;DHT22;35317;51.978;6.296;2023-04-25T13:18:49;11.60;77.60
49441;DHT22;35317;51.978;6.296;2023-04-25T13:23:50;11.50;76.60
49441;DHT22;35317;51.978;6.296;2023-04-25T13:28:51;11.50;75.40
49441;DHT22;35317;51.978;6.296;2023-04-25T13:33:52;11.60;76.40
49441;DHT22;35317;51.978;6.296;2023-04-25T13:38:53;11.80;75.50
49441;DHT22;35317;51.978;6.296;2023-04-25T13:43:53;12.00;74.60
49441;DHT22;35317;51.978;6.296;2023-04-25T13:48:58;12.50;73.90
49441;DHT22;35317;51.978;6.296;2023-04-25T13:53:58;13.00;73.90
49441;DHT22;35317;51.978;6.296;2023-04-25T13:58:59;13.80;72.90
49441;DHT22;35317;51.978;6.296;2023-04-25T14:04:00;13.80;69.40
49441;DHT22;35317;51.978;6.296;2023-04-25T14:09:01;13.60;69.50
49441;DHT22;35317;51.978;6.296;2023-04-25T14:14:02;13.20;70.10
49441;DHT22;35317;51.978;6.296;2023-04-25T14:19:02;12.90;71.50
49441;DHT22;35317;51.978;6.296;2023-04-25T14:24:04;12.60;72.20
49441;DHT22;35317;51.978;6.296;2023-04-25T14:29:05;12.50;72.60
49441;DHT22;35317;51.978;6.296;2023-04-25T14:34:12;12.40;72.60
49441;DHT22;35317;51.978;6.296;2023-04-25T14:39:12;12.20;72.60
49441;DHT22;35317;51.978;6.296;2023-04-25T14:44:14;12.20;72.60
49441;DHT22;35317;51.978;6.296;2023-04-25T14:49:15;12.20;73.00
49441;DHT22;35317;51.978;6.296;2023-04-25T14:54:16;12.50;72.30
49441;DHT22;35317;51.978;6.296;2023-04-25T14:59:17;12.80;71.60
49441;DHT22;35317;51.978;6.296;2023-04-25T15:04:18;13.30;70.50
49441;DHT22;35317;51.978;6.296;2023-04-25T15:09:19;13.60;68.40
49441;DHT22;35317;51.978;6.296;2023-04-25T15:14:20;13.60;67.50
49441;DHT22;35317;51.978;6.296;2023-04-25T15:19:20;13.20;67.50
49441;DHT22;35317;51.978;6.296;2023-04-25T15:24:21;12.80;67.60
49441;DHT22;35317;51.978;6.296;2023-04-25T15:29:22;12.40;68.50
49441;DHT22;35317;51.978;6.296;2023-04-25T15:34:23;12.20;69.40
49441;DHT22;35317;51.978;6.296;2023-04-25T15:39:24;12.00;69.70
49441;DHT22;35317;51.978;6.296;2023-04-25T15:44:24;11.90;70.10
49441;DHT22;35317;51.978;6.296;2023-04-25T15:49:26;11.80;70.00
49441;DHT22;35317;51.978;6.296;2023-04-25T15:54:27;11.70;70.80
49441;DHT22;35317;51.978;6.296;2023-04-25T15:59:28;11.90;71.20
49441;DHT22;35317;51.978;6.296;2023-04-25T16:04:29;12.10;70.40
49441;DHT22;35317;51.978;6.296;2023-04-25T16:09:35;12.10;69.80
49441;DHT22;35317;51.978;6.296;2023-04-25T16:14:36;12.20;68.90
49441;DHT22;35317;51.978;6.296;2023-04-25T16:19:37;12.20;68.60
49441;DHT22;35317;51.978;6.296;2023-04-25T16:24:38;12.20;67.80
49441;DHT22;35317;51.978;6.296;2023-04-25T16:29:40;12.00;68.10
49441;DHT22;35317;51.978;6.296;2023-04-25T16:34:41;11.90;68.30
49441;DHT22;35317;51.978;6.296;2023-04-25T16:39:42;11.80;68.30
49441;DHT22;35317;51.978;6.296;2023-04-25T16:44:43;11.60;68.60
49441;DHT22;35317;51.978;6.296;2023-04-25T16:49:44;11.40;68.90
49441;DHT22;35317;51.978;6.296;2023-04-25T16:54:45;11.30;68.90
49441;DHT22;35317;51.978;6.296;2023-04-25T16:59:45;11.20;68.90
49441;DHT22;35317;51.978;6.296;2023-04-25T17:04:46;11.30;69.40
49441;DHT22;35317;51.978;6.296;2023-04-25T17:09:47;11.30;70.00
49441;DHT22;35317;51.978;6.296;2023-04-25T17:14:48;11.10;70.80
49441;DHT22;35317;51.978;6.296;2023-04-25T17:19:49;11.00;71.30
49441;DHT22;35317;51.978;6.296;2023-04-25T17:24:50;10.90;70.90
49441;DHT22;35317;51.978;6.296;2023-04-25T17:29:50;10.70;70.90
49441;DHT22;35317;51.978;6.296;2023-04-25T17:34:51;10.50;71.10
49441;DHT22;35317;51.978;6.296;2023-04-25T17:39:52;10.20;71.50
49441;DHT22;35317;51.978;6.296;2023-04-25T17:44:53;9.90;72.30
49441;DHT22;35317;51.978;6.296;2023-04-25T17:49:57;9.80;72.90
49441;DHT22;35317;51.978;6.296;2023-04-25T17:54:58;9.70;73.40
49441;DHT22;35317;51.978;6.296;2023-04-25T17:59:59;9.60;73.70
49441;DHT22;35317;51.978;6.296;2023-04-25T18:05:00;9.60;74.00
49441;DHT22;35317;51.978;6.296;2023-04-25T18:10:08;9.60;74.40
49441;DHT22;35317;51.978;6.296;2023-04-25T18:15:11;9.50;74.70
49441;DHT22;35317;51.978;6.296;2023-04-25T18:20:13;9.30;75.10
49441;DHT22;35317;51.978;6.296;2023-04-25T18:25:15;9.10;75.50
49441;DHT22;35317;51.978;6.296;2023-04-25T18:30:16;8.90;75.90
49441;DHT22;35317;51.978;6.296;2023-04-25T18:35:17;8.70;76.50
49441;DHT22;35317;51.978;6.296;2023-04-25T18:40:17;8.60;77.00
49441;DHT22;35317;51.978;6.296;2023-04-25T18:45:18;8.40;77.70
49441;DHT22;35317;51.978;6.296;2023-04-25T18:50:19;8.20;78.20
49441;DHT22;35317;51.978;6.296;2023-04-25T18:55:22;8.10;78.60
49441;DHT22;35317;51.978;6.296;2023-04-25T19:00:24;7.90;78.90
49441;DHT22;35317;51.978;6.296;2023-04-25T19:05:34;7.70;79.40
49441;DHT22;35317;51.978;6.296;2023-04-25T19:10:35;7.60;79.90
49441;DHT22;35317;51.978;6.296;2023-04-25T19:15:36;7.50;80.30
49441;DHT22;35317;51.978;6.296;2023-04-25T19:20:39;7.40;80.70
49441;DHT22;35317;51.978;6.296;2023-04-25T19:25:40;7.40;81.10
49441;DHT22;35317;51.978;6.296;2023-04-25T19:30:42;7.40;81.60
49441;DHT22;35317;51.978;6.296;2023-04-25T19:35:45;7.40;81.80
49441;DHT22;35317;51.978;6.296;2023-04-25T19:40:46;7.30;82.00
49441;DHT22;35317;51.978;6.296;2023-04-25T19:45:48;7.30;82.30
49441;DHT22;35317;51.978;6.296;2023-04-25T19:50:48;7.20;82.50
49441;DHT22;35317;51.978;6.296;2023-04-25T19:55:50;7.10;82.90
49441;DHT22;35317;51.978;6.296;2023-04-25T20:00:51;7.20;83.80
49441;DHT22;35317;51.978;6.296;2023-04-25T20:05:52;7.10;83.40
49441;DHT22;35317;51.978;6.296;2023-04-25T20:10:53;7.20;83.80
49441;DHT22;35317;51.978;6.296;2023-04-25T20:15:54;7.30;83.80
49441;DHT22;35317;51.978;6.296;2023-04-25T20:20:54;7.30;83.80
49441;DHT22;35317;51.978;6.296;2023-04-25T20:25:55;7.20;84.10
49441;DHT22;35317;51.978;6.296;2023-04-25T20:30:56;7.20;84.30
49441;DHT22;35317;51.978;6.296;2023-04-25T20:35:58;7.10;85.20
49441;DHT22;35317;51.978;6.296;2023-04-25T20:40:59;7.00;85.50
49441;DHT22;35317;51.978;6.296;2023-04-25T20:46:00;6.80;85.70
49441;DHT22;35317;51.978;6.296;2023-04-25T20:51:01;6.70;86.00
49441;DHT22;35317;51.978;6.296;2023-04-25T20:56:03;6.50;86.20
49441;DHT22;35317;51.978;6.296;2023-04-25T21:01:05;6.30;86.60
49441;DHT22;35317;51.978;6.296;2023-04-25T21:06:09;6.10;87.00
49441;DHT22;35317;51.978;6.296;2023-04-25T21:11:10;6.00;87.40
49441;DHT22;35317;51.978;6.296;2023-04-25T21:16:11;5.90;87.70
49441;DHT22;35317;51.978;6.296;2023-04-25T21:21:12;5.80;88.30
49441;DHT22;35317;51.978;6.296;2023-04-25T21:26:13;5.70;88.60
49441;DHT22;35317;51.978;6.296;2023-04-25T21:31:14;5.60;88.90
49441;DHT22;35317;51.978;6.296;2023-04-25T21:36:15;5.50;89.30
49441;DHT22;35317;51.978;6.296;2023-04-25T21:41:16;5.40;89.70
49441;DHT22;35317;51.978;6.296;2023-04-25T21:46:17;5.20;89.90
49441;DHT22;35317;51.978;6.296;2023-04-25T21:51:18;5.10;90.00
49441;DHT22;35317;51.978;6.296;2023-04-25T21:56:19;5.00;90.10
49441;DHT22;35317;51.978;6.296;2023-04-25T22:01:20;4.90;90.20
49441;DHT22;35317;51.978;6.296;2023-04-25T22:06:21;4.80;90.40
49441;DHT22;35317;51.978;6.296;2023-04-25T22:11:22;4.70;90.50
49441;DHT22;35317;51.978;6.296;2023-04-25T22:16:23;4.60;90.60
49441;DHT22;35317;51.978;6.296;2023-04-25T22:21:25;4.40;90.70
49441;DHT22;35317;51.978;6.296;2023-04-25T22:26:27;4.30;90.90
49441;DHT22;35317;51.978;6.296;2023-04-25T22:31:29;4.20;91.00
49441;DHT22;35317;51.978;6.296;2023-04-25T22:36:30;4.10;91.20
49441;DHT22;35317;51.978;6.296;2023-04-25T22:41:31;4.00;91.30
49441;DHT22;35317;51.978;6.296;2023-04-25T22:46:31;3.90;91.40
49441;DHT22;35317;51.978;6.296;2023-04-25T22:51:32;3.80;91.60
49441;DHT22;35317;51.978;6.296;2023-04-25T22:56:33;3.80;91.70
49441;DHT22;35317;51.978;6.296;2023-04-25T23:01:34;3.70;91.80
49441;DHT22;35317;51.978;6.296;2023-04-25T23:06:35;3.70;91.90
49441;DHT22;35317;51.978;6.296;2023-04-25T23:11:40;3.60;92.00
49441;DHT22;35317;51.978;6.296;2023-04-25T23:16:41;3.50;92.10
49441;DHT22;35317;51.978;6.296;2023-04-25T23:21:42;3.50;92.30
49441;DHT22;35317;51.978;6.296;2023-04-25T23:26:43;3.40;92.40
49441;DHT22;35317;51.978;6.296;2023-04-25T23:31:43;3.30;92.50
49441;DHT22;35317;51.978;6.296;2023-04-25T23:36:44;3.30;92.70
49441;DHT22;35317;51.978;6.296;2023-04-25T23:41:45;3.20;92.80
49441;DHT22;35317;51.978;6.296;2023-04-25T23:46:46;3.10;92.90
49441;DHT22;35317;51.978;6.296;2023-04-25T23:51:47;3.10;93.30
49441;DHT22;35317;51.978;6.296;2023-04-25T23:56:48;3.00;93.10
